createdAt,value
2019-02-11T00:00:33.930Z,0.20
2019-02-11T00:03:01.512Z,0.73
2019-02-11T00:05:29.210Z,0.20
2019-02-11T00:07:56.774Z,0.27
2019-02-11T00:10:24.162Z,0.93
2019-02-11T00:12:51.306Z,0.37
2019-02-11T00:15:18.782Z,0.20
2019-02-11T00:17:46.267Z,0.37
2019-02-11T00:20:13.550Z,0.10
2019-02-11T00:22:41.106Z,0.57
2019-02-11T00:25:08.978Z,0.40
2019-02-11T00:27:36.235Z,0.30
2019-02-11T00:30:04.656Z,0.30
2019-02-11T00:32:36.451Z,0.23
2019-02-11T00:35:04.276Z,0.77
2019-02-11T00:37:32.163Z,0.50
2019-02-11T00:39:59.678Z,0.30
2019-02-11T00:42:27.121Z,0.33
2019-02-11T00:44:55.322Z,0.60
2019-02-11T00:47:22.943Z,0.40
2019-02-11T00:49:50.389Z,0.30
2019-02-11T00:52:17.827Z,0.73
2019-02-11T00:54:45.334Z,0.20
2019-02-11T00:57:13.136Z,0.20
2019-02-11T00:59:40.719Z,1.50
2019-02-11T01:02:08.181Z,0.17
2019-02-11T01:04:35.824Z,0.20
2019-02-11T01:07:04.161Z,0.20
2019-02-11T01:09:31.696Z,0.30
2019-02-11T01:11:58.950Z,0.20
2019-02-11T01:14:27.014Z,0.93
2019-02-11T01:16:54.877Z,0.20
2019-02-11T01:19:22.534Z,0.07
2019-02-11T01:21:49.687Z,0.00
2019-02-11T01:24:16.879Z,0.10
2019-02-11T01:26:44.284Z,0.40
2019-02-11T01:29:11.789Z,0.40
2019-02-11T01:31:39.902Z,0.20
2019-02-11T01:34:07.038Z,0.20
2019-02-11T01:36:34.169Z,0.20
2019-02-11T01:39:01.646Z,0.63
2019-02-11T01:41:29.877Z,0.40
2019-02-11T01:43:57.176Z,0.00
2019-02-11T01:46:24.713Z,0.20
2019-02-11T01:48:52.137Z,0.90
2019-02-11T01:51:19.732Z,0.30
2019-02-11T01:53:47.330Z,1.03
2019-02-11T01:56:14.708Z,0.30
2019-02-11T01:58:42.289Z,0.27
2019-02-11T02:01:10.144Z,0.10
2019-02-11T02:03:38.033Z,0.30
2019-02-11T02:06:05.423Z,6.13
2019-02-11T02:08:33.356Z,0.20
2019-02-11T02:11:00.621Z,0.10
2019-02-11T02:14:14.193Z,1.07
2019-02-11T02:16:41.677Z,0.43
2019-02-11T02:19:09.212Z,1.33
2019-02-11T02:21:36.472Z,0.40
2019-02-11T02:24:04.087Z,0.37
2019-02-11T02:26:32.118Z,0.40
2019-02-11T02:28:59.525Z,0.20
2019-02-11T02:31:27.022Z,0.10
2019-02-11T02:33:54.514Z,0.20
2019-02-11T02:36:22.087Z,0.10
2019-02-11T02:38:49.234Z,0.10
2019-02-11T02:41:16.372Z,0.13
2019-02-11T02:43:44.294Z,0.10
2019-02-11T02:46:11.581Z,1.17
2019-02-11T02:48:39.283Z,0.30
2019-02-11T02:51:06.874Z,0.23
2019-02-11T02:53:34.050Z,0.50
2019-02-11T02:56:01.289Z,0.50
2019-02-11T02:58:29.151Z,0.20
2019-02-11T03:00:56.543Z,0.17
2019-02-11T03:03:24.295Z,0.10
2019-02-11T03:05:53.028Z,0.27
2019-02-11T03:08:20.835Z,0.10
2019-02-11T03:10:48.907Z,0.73
2019-02-11T03:13:16.405Z,0.27
2019-02-11T03:15:43.496Z,0.17
2019-02-11T03:18:11.470Z,0.20
2019-02-11T03:20:38.959Z,0.10
2019-02-11T03:23:06.785Z,0.40
2019-02-11T03:25:34.077Z,0.10
2019-02-11T03:28:01.335Z,0.00
2019-02-11T03:30:29.123Z,1.07
2019-02-11T03:32:57.067Z,0.10
2019-02-11T03:35:24.765Z,0.10
2019-02-11T03:37:52.741Z,0.10
2019-02-11T03:40:20.213Z,0.17
2019-02-11T03:42:49.535Z,0.10
2019-02-11T03:45:17.233Z,0.13
2019-02-11T03:47:44.728Z,0.83
2019-02-11T03:50:12.462Z,0.20
2019-02-11T03:52:39.823Z,0.20
2019-02-11T03:55:07.299Z,0.20
2019-02-11T03:57:34.743Z,0.27
2019-02-11T04:00:02.253Z,0.20
2019-02-11T04:02:29.872Z,0.20
2019-02-11T04:04:57.017Z,0.30
2019-02-11T04:07:24.605Z,0.47
2019-02-11T04:09:52.602Z,0.40
2019-02-11T04:12:20.594Z,0.20
2019-02-11T04:14:48.482Z,0.10
2019-02-11T04:17:16.395Z,0.30
2019-02-11T04:19:43.851Z,0.50
2019-02-11T04:22:11.227Z,0.50
2019-02-11T04:24:38.917Z,0.30
2019-02-11T04:27:06.257Z,0.20
2019-02-11T04:29:33.491Z,0.50
2019-02-11T04:32:01.423Z,0.50
2019-02-11T04:34:29.371Z,1.37
2019-02-11T04:36:56.921Z,0.40
2019-02-11T04:39:24.784Z,0.50
2019-02-11T04:41:52.964Z,0.47
2019-02-11T04:44:21.023Z,0.67
2019-02-11T04:46:48.246Z,0.20
2019-02-11T04:49:16.196Z,0.47
2019-02-11T04:51:43.543Z,0.60
2019-02-11T04:54:11.696Z,0.30
2019-02-11T04:56:39.138Z,0.50
2019-02-11T04:59:06.397Z,0.40
2019-02-11T05:01:34.033Z,1.07
2019-02-11T05:04:01.782Z,0.90
2019-02-11T05:06:28.891Z,2.27
2019-02-11T05:08:56.796Z,0.73
2019-02-11T05:11:24.212Z,1.00
2019-02-11T05:13:51.996Z,3.80
2019-02-11T05:16:19.277Z,3.33
2019-02-11T05:18:47.250Z,2.87
2019-02-11T05:21:14.830Z,1.73
2019-02-11T05:23:41.981Z,1.83
2019-02-11T05:26:09.769Z,3.23
2019-02-11T05:28:37.613Z,1.90
2019-02-11T05:31:04.750Z,2.00
2019-02-11T05:33:31.861Z,3.03
2019-02-11T05:35:58.976Z,1.77
2019-02-11T05:38:26.563Z,2.03
2019-02-11T05:40:54.285Z,1.43
2019-02-11T05:43:21.961Z,3.50
2019-02-11T05:45:49.306Z,3.23
2019-02-11T05:48:16.595Z,4.07
2019-02-11T05:50:43.728Z,2.33
2019-02-11T05:53:11.679Z,2.97
2019-02-11T05:55:39.230Z,2.57
2019-02-11T05:58:06.982Z,2.13
2019-02-11T06:00:34.811Z,5.83
2019-02-11T06:03:02.436Z,3.07
2019-02-11T06:05:29.787Z,2.40
2019-02-11T06:07:57.677Z,3.30
2019-02-11T06:10:25.741Z,3.20
2019-02-11T06:12:53.132Z,3.57
2019-02-11T06:15:21.132Z,3.33
2019-02-11T06:17:48.597Z,2.60
2019-02-11T06:20:16.623Z,4.70
2019-02-11T06:22:44.053Z,3.23
2019-02-11T06:25:11.329Z,3.30
2019-02-11T06:27:38.607Z,2.60
2019-02-11T06:30:07.845Z,4.43
2019-02-11T06:32:35.377Z,2.97
2019-02-11T06:35:03.681Z,3.43
2019-02-11T06:37:31.759Z,4.30
2019-02-11T06:39:59.550Z,6.70
2019-02-11T06:42:27.457Z,3.37
2019-02-11T06:44:55.221Z,4.57
2019-02-11T06:47:23.104Z,3.40
2019-02-11T06:49:50.543Z,3.57
2019-02-11T06:52:18.430Z,5.83
2019-02-11T06:54:45.573Z,4.50
2019-02-11T06:57:12.746Z,5.87
2019-02-11T06:59:40.429Z,10.03
2019-02-11T07:02:08.446Z,8.20
2019-02-11T07:04:36.131Z,4.77
2019-02-11T07:07:03.799Z,5.57
2019-02-11T07:09:30.946Z,6.77
2019-02-11T07:11:58.385Z,5.80
2019-02-11T07:14:29.625Z,4.13
2019-02-11T07:16:57.473Z,8.87
2019-02-11T07:19:25.297Z,7.97
2019-02-11T07:21:52.525Z,6.57
2019-02-11T07:24:20.465Z,4.93
2019-02-11T07:26:47.753Z,7.53
2019-02-11T07:29:15.325Z,8.80
2019-02-11T07:31:43.055Z,6.37
2019-02-11T07:34:10.943Z,7.03
2019-02-11T07:36:38.429Z,6.57
2019-02-11T07:39:08.451Z,9.17
2019-02-11T07:41:47.570Z,6.70
2019-02-11T07:44:23.256Z,6.27
2019-02-11T07:46:54.831Z,6.53
2019-02-11T07:49:22.318Z,5.07
2019-02-11T07:51:49.689Z,4.73
2019-02-11T07:54:17.587Z,3.60
2019-02-11T07:56:45.750Z,9.37
2019-02-11T07:59:13.384Z,8.03
2019-02-11T08:01:41.679Z,6.83
2019-02-11T08:04:09.145Z,7.97
2019-02-11T08:06:36.710Z,7.47
2019-02-11T08:09:06.954Z,9.10
2019-02-11T08:11:35.098Z,8.77
2019-02-11T08:14:02.908Z,6.23
2019-02-11T08:16:30.553Z,7.70
2019-02-11T08:18:58.979Z,10.70
2019-02-11T08:21:26.643Z,8.63
2019-02-11T08:23:54.001Z,6.43
2019-02-11T08:26:22.102Z,10.87
2019-02-11T08:28:50.263Z,12.63
2019-02-11T08:31:17.876Z,6.40
2019-02-11T08:33:45.523Z,7.77
2019-02-11T08:36:13.227Z,9.53
2019-02-11T08:38:41.452Z,7.23
2019-02-11T08:41:08.828Z,8.67
2019-02-11T08:43:37.414Z,6.83
2019-02-11T08:46:04.725Z,5.67
2019-02-11T08:48:35.016Z,10.73
2019-02-11T08:51:03.081Z,13.33
2019-02-11T08:53:30.507Z,7.13
2019-02-11T08:55:57.953Z,7.90
2019-02-11T08:58:25.936Z,11.67
2019-02-11T09:00:55.430Z,13.27
2019-02-11T09:03:22.971Z,6.33
2019-02-11T09:05:50.661Z,10.13
2019-02-11T09:08:18.031Z,8.33
2019-02-11T09:10:45.767Z,6.90
2019-02-11T09:13:13.009Z,5.43
2019-02-11T09:15:40.960Z,5.83
2019-02-11T09:18:08.877Z,10.37
2019-02-11T09:20:37.097Z,6.67
2019-02-11T09:23:04.657Z,8.60
2019-02-11T09:25:32.655Z,2.57
2019-02-11T09:27:59.790Z,4.50
2019-02-11T09:30:27.287Z,4.93
2019-02-11T09:32:54.686Z,5.77
2019-02-11T09:35:22.330Z,7.10
2019-02-11T09:37:50.913Z,5.37
2019-02-11T09:40:18.729Z,6.87
2019-02-11T09:42:46.969Z,7.67
2019-02-11T09:45:19.488Z,6.10
2019-02-11T09:47:47.591Z,6.30
2019-02-11T09:50:31.778Z,4.07
2019-02-11T09:52:59.641Z,5.97
2019-02-11T09:55:28.925Z,4.27
2019-02-11T09:57:57.145Z,3.47
2019-02-11T10:00:25.814Z,6.80
2019-02-11T10:02:53.038Z,6.00
2019-02-11T10:05:20.468Z,5.83
2019-02-11T10:07:48.103Z,3.70
2019-02-11T10:10:15.865Z,3.90
2019-02-11T10:12:43.521Z,4.37
2019-02-11T10:15:11.785Z,6.10
2019-02-11T10:17:41.251Z,4.47
2019-02-11T10:20:09.280Z,3.37
2019-02-11T10:22:37.144Z,3.73
2019-02-11T10:25:11.352Z,5.83
2019-02-11T10:27:39.410Z,4.20
2019-02-11T10:30:10.345Z,3.43
2019-02-11T10:32:37.713Z,7.43
2019-02-11T10:35:05.537Z,3.80
2019-02-11T10:37:33.318Z,3.63
2019-02-11T10:40:01.883Z,7.13
2019-02-11T10:42:29.444Z,5.70
2019-02-11T10:44:58.211Z,10.73
2019-02-11T10:47:25.890Z,8.47
2019-02-11T10:49:53.406Z,4.90
2019-02-11T10:52:21.397Z,4.13
2019-02-11T10:54:49.465Z,6.40
2019-02-11T10:57:17.217Z,7.17
2019-02-11T10:59:44.985Z,4.47
2019-02-11T11:02:12.314Z,4.97
2019-02-11T11:04:40.065Z,5.20
2019-02-11T11:07:07.741Z,8.30
2019-02-11T11:09:35.572Z,4.93
2019-02-11T11:12:03.487Z,9.80
2019-02-11T11:14:31.641Z,2.87
2019-02-11T11:16:59.285Z,11.37
2019-02-11T11:19:27.290Z,5.37
2019-02-11T11:21:55.478Z,4.90
2019-02-11T11:24:22.926Z,3.97
2019-02-11T11:26:50.433Z,3.93
2019-02-11T11:29:18.153Z,6.43
2019-02-11T11:31:46.446Z,6.53
2019-02-11T11:34:14.659Z,4.80
2019-02-11T11:36:42.329Z,4.90
2019-02-11T11:39:18.298Z,8.67
2019-02-11T11:41:46.356Z,5.67
2019-02-11T11:44:14.322Z,5.63
2019-02-11T11:46:47.043Z,3.73
2019-02-11T11:49:11.575Z,3.63
2019-02-11T11:51:40.571Z,2.43
2019-02-11T11:54:08.029Z,4.20
2019-02-11T11:56:36.110Z,4.00
2019-02-11T11:59:03.888Z,6.03
2019-02-11T12:01:31.487Z,7.60
2019-02-11T12:03:59.093Z,3.73
2019-02-11T12:06:27.161Z,8.03
2019-02-11T12:08:58.725Z,3.37
2019-02-11T12:11:28.027Z,10.43
2019-02-11T12:13:55.670Z,3.97
2019-02-11T12:16:23.425Z,5.90
2019-02-11T12:18:51.483Z,5.87
2019-02-11T12:21:18.706Z,6.37
2019-02-11T12:23:46.353Z,6.80
2019-02-11T12:26:14.655Z,3.27
2019-02-11T12:28:42.260Z,4.20
2019-02-11T12:31:10.194Z,5.50
2019-02-11T12:33:38.626Z,3.77
2019-02-11T12:36:06.094Z,4.07
2019-02-11T12:38:33.905Z,2.87
2019-02-11T12:41:01.140Z,4.67
2019-02-11T12:43:29.215Z,4.13
2019-02-11T12:45:57.470Z,6.07
2019-02-11T12:48:25.493Z,5.87
2019-02-11T12:50:53.700Z,5.30
2019-02-11T12:53:21.510Z,2.53
2019-02-11T12:55:49.115Z,4.00
2019-02-11T12:58:16.401Z,4.83
2019-02-11T13:00:43.946Z,3.70
2019-02-11T13:03:20.046Z,4.57
2019-02-11T13:05:51.288Z,4.83
2019-02-11T13:08:21.093Z,3.57
2019-02-11T13:10:48.959Z,3.03
2019-02-11T13:13:16.710Z,2.53
2019-02-11T13:16:00.137Z,4.90
2019-02-11T13:18:16.895Z,3.67
2019-02-11T13:20:45.206Z,2.73
2019-02-11T13:23:12.886Z,1.63
2019-02-11T13:25:41.702Z,6.30
2019-02-11T13:28:09.026Z,5.50
2019-02-11T13:30:36.738Z,4.30
2019-02-11T13:33:09.404Z,4.87
2019-02-11T13:35:36.659Z,5.27
2019-02-11T13:38:03.788Z,3.53
2019-02-11T13:40:31.241Z,3.40
2019-02-11T13:42:58.970Z,4.03
2019-02-11T13:45:26.334Z,2.43
2019-02-11T13:47:57.718Z,2.77
2019-02-11T13:50:24.207Z,2.63
2019-02-11T13:52:53.095Z,2.77
2019-02-11T13:55:21.346Z,2.77
2019-02-11T13:57:49.405Z,2.57
2019-02-11T14:00:34.953Z,4.03
2019-02-11T14:03:04.610Z,4.00
2019-02-11T14:05:33.056Z,4.57
2019-02-11T14:08:02.141Z,5.30
2019-02-11T14:10:30.041Z,3.67
2019-02-11T14:12:57.787Z,3.23
2019-02-11T14:15:25.687Z,3.03
2019-02-11T14:18:10.884Z,2.43
2019-02-11T14:20:25.504Z,5.43
2019-02-11T14:22:53.389Z,5.40
2019-02-11T14:25:39.160Z,7.63
2019-02-11T14:27:50.278Z,4.17
2019-02-11T14:30:19.198Z,3.87
2019-02-11T14:32:47.010Z,3.47
2019-02-11T14:35:14.945Z,3.90
2019-02-11T14:37:42.405Z,4.10
2019-02-11T14:40:10.918Z,4.33
2019-02-11T14:42:38.533Z,3.63
2019-02-11T14:45:07.604Z,3.03
2019-02-11T14:47:34.798Z,1.40
2019-02-11T14:50:02.283Z,5.50
2019-02-11T14:52:29.805Z,2.57
2019-02-11T14:54:57.444Z,5.97
2019-02-11T14:57:25.758Z,5.03
2019-02-11T14:59:53.904Z,5.20
2019-02-11T15:02:21.436Z,3.40
2019-02-11T15:04:48.945Z,4.27
2019-02-11T15:07:16.905Z,2.30
2019-02-11T15:09:45.123Z,2.20
2019-02-11T15:12:12.702Z,2.63
2019-02-11T15:14:39.971Z,5.47
2019-02-11T15:17:07.864Z,3.23
2019-02-11T15:19:35.016Z,5.07
2019-02-11T15:22:02.806Z,4.63
2019-02-11T15:24:30.515Z,2.83
2019-02-11T15:26:58.036Z,4.67
2019-02-11T15:29:25.458Z,2.97
2019-02-11T15:31:52.922Z,3.60
2019-02-11T15:34:20.959Z,5.33
2019-02-11T15:36:48.973Z,3.43
2019-02-11T15:39:16.923Z,3.50
2019-02-11T15:41:44.770Z,5.63
2019-02-11T15:44:12.523Z,7.27
2019-02-11T15:46:39.764Z,2.83
2019-02-11T15:49:07.232Z,6.03
2019-02-11T15:51:35.023Z,5.47
2019-02-11T15:54:02.678Z,1.67
2019-02-11T15:56:30.831Z,2.70
2019-02-11T15:58:58.452Z,4.50
2019-02-11T16:01:25.815Z,5.43
2019-02-11T16:03:53.113Z,2.97
2019-02-11T16:06:20.865Z,3.27
2019-02-11T16:08:48.304Z,6.00
2019-02-11T16:11:18.894Z,2.77
2019-02-11T16:13:46.312Z,2.97
2019-02-11T16:16:13.876Z,2.30
2019-02-11T16:18:41.228Z,3.37
2019-02-11T16:21:09.083Z,4.67
2019-02-11T16:23:36.955Z,5.00
2019-02-11T16:26:04.509Z,3.90
2019-02-11T16:28:32.592Z,6.13
2019-02-11T16:30:59.764Z,3.93
2019-02-11T16:33:27.588Z,4.63
2019-02-11T16:35:54.994Z,3.67
2019-02-11T16:38:22.462Z,3.13
2019-02-11T16:40:49.825Z,6.50
2019-02-11T16:43:17.207Z,5.80
2019-02-11T16:45:44.877Z,3.87
2019-02-11T16:48:12.651Z,4.00
2019-02-11T16:50:40.064Z,3.33
2019-02-11T16:53:07.228Z,4.15
2019-02-11T16:55:35.406Z,4.67
2019-02-11T16:58:03.073Z,3.40
2019-02-11T17:00:30.794Z,3.97
2019-02-11T17:02:58.846Z,5.70
2019-02-11T17:05:26.804Z,5.30
2019-02-11T17:07:54.314Z,6.43
2019-02-11T17:10:22.551Z,4.80
2019-02-11T17:12:50.413Z,4.10
2019-02-11T17:15:17.678Z,5.23
2019-02-11T17:17:45.037Z,4.43
2019-02-11T17:20:13.271Z,4.87
2019-02-11T17:22:41.218Z,3.87
2019-02-11T17:25:08.931Z,5.53
2019-02-11T17:27:36.808Z,4.13
2019-02-11T17:30:07.469Z,2.70
2019-02-11T17:32:34.952Z,8.40
2019-02-11T17:35:03.074Z,2.67
2019-02-11T17:37:30.354Z,5.57
2019-02-11T17:39:57.647Z,5.83
2019-02-11T17:42:26.134Z,3.07
2019-02-11T17:44:53.457Z,3.97
2019-02-11T17:47:20.981Z,7.23
2019-02-11T17:49:49.075Z,8.37
2019-02-11T17:52:17.705Z,3.23
2019-02-11T17:54:45.373Z,4.83
2019-02-11T17:57:12.935Z,4.87
2019-02-11T17:59:40.917Z,3.37
2019-02-11T18:02:13.318Z,4.20
2019-02-11T18:04:41.172Z,9.33
2019-02-11T18:07:09.801Z,7.30
2019-02-11T18:09:37.468Z,6.90
2019-02-11T18:12:05.471Z,5.23
2019-02-11T18:14:32.834Z,4.73
2019-02-11T18:17:00.476Z,6.17
2019-02-11T18:19:28.581Z,7.30
2019-02-11T18:21:56.433Z,8.53
2019-02-11T18:24:23.862Z,7.00
2019-02-11T18:26:51.951Z,6.03
2019-02-11T18:29:20.034Z,7.20
2019-02-11T18:31:47.864Z,5.50
2019-02-11T18:34:15.743Z,4.27
2019-02-11T18:36:43.641Z,5.03
2019-02-11T18:39:11.074Z,6.67
2019-02-11T18:41:38.673Z,7.67
2019-02-11T18:44:06.020Z,3.33
2019-02-11T18:46:33.380Z,7.40
2019-02-11T18:49:01.530Z,7.97
2019-02-11T18:51:29.212Z,6.73
2019-02-11T18:53:56.463Z,8.37
2019-02-11T18:56:23.745Z,8.27
2019-02-11T18:58:51.422Z,7.70
2019-02-11T19:01:23.353Z,6.23
2019-02-11T19:03:50.912Z,10.37
2019-02-11T19:06:18.427Z,8.47
2019-02-11T19:08:46.391Z,5.00
2019-02-11T19:11:14.528Z,7.17
2019-02-11T19:13:42.572Z,5.47
2019-02-11T19:16:09.800Z,8.33
2019-02-11T19:18:37.284Z,5.53
2019-02-11T19:21:04.908Z,4.00
2019-02-11T19:23:32.063Z,9.40
2019-02-11T19:26:00.751Z,5.77
2019-02-11T19:28:28.074Z,9.40
2019-02-11T19:30:55.443Z,6.07
2019-02-11T19:33:23.886Z,7.00
2019-02-11T19:35:51.669Z,9.50
2019-02-11T19:38:18.930Z,8.23
2019-02-11T19:40:46.942Z,9.50
2019-02-11T19:43:18.494Z,17.33
2019-02-11T19:45:46.765Z,8.70
2019-02-11T19:48:14.020Z,12.20
2019-02-11T19:50:41.882Z,6.83
2019-02-11T19:53:09.514Z,11.60
2019-02-11T19:55:37.462Z,6.80
2019-02-11T19:58:04.758Z,9.30
2019-02-11T20:00:32.707Z,10.47
2019-02-11T20:03:00.324Z,7.00
2019-02-11T20:05:27.829Z,7.73
2019-02-11T20:07:56.042Z,9.97
2019-02-11T20:10:23.675Z,7.10
2019-02-11T20:12:51.287Z,9.63
2019-02-11T20:15:20.850Z,6.23
2019-02-11T20:17:48.644Z,6.97
2019-02-11T20:20:18.742Z,8.10
2019-02-11T20:22:46.328Z,7.80
2019-02-11T20:25:14.001Z,13.67
2019-02-11T20:27:42.053Z,8.10
2019-02-11T20:30:13.508Z,15.43
2019-02-11T20:32:41.627Z,12.30
2019-02-11T20:35:09.112Z,10.33
2019-02-11T20:37:36.495Z,13.73
2019-02-11T20:40:04.930Z,7.20
2019-02-11T20:42:32.588Z,11.10
2019-02-11T20:45:00.267Z,14.17
2019-02-11T20:47:33.327Z,8.23
2019-02-11T20:50:08.660Z,13.57
2019-02-11T20:52:30.595Z,7.97
2019-02-11T20:54:58.620Z,13.47
2019-02-11T20:57:26.505Z,9.67
2019-02-11T20:59:55.045Z,9.20
2019-02-11T21:02:23.739Z,9.53
2019-02-11T21:04:51.621Z,12.47
2019-02-11T21:07:19.310Z,11.67
2019-02-11T21:09:47.540Z,8.93
2019-02-11T21:12:14.792Z,11.67
2019-02-11T21:14:42.589Z,7.47
2019-02-11T21:17:10.168Z,8.27
2019-02-11T21:19:37.442Z,9.27
2019-02-11T21:22:05.692Z,9.67
2019-02-11T21:24:33.611Z,9.70
2019-02-11T21:27:01.405Z,5.57
2019-02-11T21:29:30.013Z,7.93
2019-02-11T21:31:57.877Z,8.10
2019-02-11T21:34:25.525Z,10.57
2019-02-11T21:36:52.978Z,12.57
2019-02-11T21:39:20.659Z,15.13
2019-02-11T21:41:48.346Z,8.33
2019-02-11T21:44:15.973Z,14.80
2019-02-11T21:46:43.734Z,12.20
2019-02-11T21:49:11.403Z,7.30
2019-02-11T21:51:38.959Z,8.10
2019-02-11T21:54:06.798Z,9.13
2019-02-11T21:56:34.041Z,11.73
2019-02-11T21:59:01.232Z,12.37
2019-02-11T22:01:28.703Z,11.50
2019-02-11T22:03:56.249Z,9.97
2019-02-11T22:06:23.542Z,11.53
2019-02-11T22:08:50.963Z,7.27
2019-02-11T22:11:18.551Z,13.47
2019-02-11T22:13:46.044Z,17.37
2019-02-11T22:16:14.017Z,14.60
2019-02-11T22:18:41.683Z,13.17
2019-02-11T22:21:09.062Z,9.30
2019-02-11T22:23:37.080Z,12.03
2019-02-11T22:26:04.711Z,13.00
2019-02-11T22:28:32.466Z,13.43
2019-02-11T22:30:59.731Z,9.83
2019-02-11T22:33:27.548Z,12.60
2019-02-11T22:35:55.031Z,13.83
2019-02-11T22:38:22.537Z,13.70
2019-02-11T22:40:50.120Z,7.77
2019-02-11T22:43:17.964Z,11.90
2019-02-11T22:45:46.176Z,13.73
2019-02-11T22:48:13.627Z,8.20
2019-02-11T22:50:43.252Z,15.37
2019-02-11T22:53:10.337Z,15.97
2019-02-11T22:55:38.715Z,9.53
2019-02-11T22:58:06.790Z,15.00
2019-02-11T23:00:44.274Z,15.70
2019-02-11T23:03:12.557Z,12.13
2019-02-11T23:05:41.069Z,17.07
2019-02-11T23:08:08.471Z,11.20
2019-02-11T23:10:35.967Z,11.30
2019-02-11T23:13:03.481Z,11.37
2019-02-11T23:15:31.218Z,16.93
2019-02-11T23:18:01.460Z,16.10
2019-02-11T23:20:28.785Z,11.87
2019-02-11T23:22:57.485Z,14.03
2019-02-11T23:25:25.314Z,14.73
2019-02-11T23:27:53.232Z,15.43
2019-02-11T23:30:20.823Z,12.37
2019-02-11T23:32:49.138Z,15.27
2019-02-11T23:35:16.637Z,14.60
2019-02-11T23:37:44.175Z,12.13
2019-02-11T23:40:12.330Z,17.33
2019-02-11T23:42:39.817Z,9.70
2019-02-11T23:45:08.006Z,18.87
2019-02-11T23:47:35.647Z,8.97
2019-02-11T23:50:03.888Z,7.53
2019-02-11T23:52:32.004Z,9.03
2019-02-11T23:54:59.456Z,10.33
2019-02-11T23:57:28.186Z,16.67
